createdAt,value
2022-10-19T00:00:00.263Z,4.80
2022-10-19T00:02:29.508Z,4.73
2022-10-19T00:04:59.370Z,4.90
2022-10-19T00:07:27.218Z,4.60
2022-10-19T00:09:55.070Z,5.40
2022-10-19T00:12:22.896Z,5.00
2022-10-19T00:14:50.730Z,5.27
2022-10-19T00:17:18.574Z,4.23
2022-10-19T00:19:47.740Z,4.67
2022-10-19T00:22:15.620Z,4.77
2022-10-19T00:24:43.435Z,4.80
2022-10-19T00:27:11.325Z,5.07
2022-10-19T00:29:39.454Z,4.30
2022-10-19T00:32:07.324Z,5.10
2022-10-19T00:34:35.167Z,4.60
2022-10-19T00:37:04.358Z,4.50
2022-10-19T00:39:32.206Z,4.70
2022-10-19T00:42:00.071Z,4.90
2022-10-19T00:45:00.567Z,5.10
2022-10-19T00:47:28.871Z,4.37
2022-10-19T00:49:58.731Z,4.60
2022-10-19T00:52:28.722Z,4.90
2022-10-19T00:54:59.166Z,4.30
2022-10-19T00:57:30.733Z,4.47
2022-10-19T01:00:01.819Z,4.63
2022-10-19T01:02:29.656Z,4.80
2022-10-19T01:04:57.736Z,4.70
2022-10-19T01:07:27.740Z,5.00
2022-10-19T01:09:56.542Z,5.50
2022-10-19T01:12:47.000Z,4.40
2022-10-19T01:15:24.950Z,5.27
2022-10-19T01:18:01.273Z,5.10
2022-10-19T01:21:01.629Z,5.23
2022-10-19T01:24:01.238Z,4.30
2022-10-19T01:26:59.192Z,4.27
2022-10-19T01:29:42.292Z,4.47
2022-10-19T01:32:17.447Z,4.60
2022-10-19T01:34:52.575Z,4.63
2022-10-19T01:37:31.989Z,4.80
2022-10-19T01:40:08.581Z,5.00
2022-10-19T01:42:44.069Z,4.33
2022-10-19T01:45:18.045Z,5.27
2022-10-19T01:47:52.605Z,4.50
2022-10-19T01:50:25.879Z,4.77
2022-10-19T01:52:56.206Z,4.90
2022-10-19T01:55:27.089Z,4.73
2022-10-19T01:58:00.670Z,4.50
2022-10-19T02:00:30.411Z,4.60
2022-10-19T02:03:01.542Z,4.53
2022-10-19T02:05:33.545Z,4.63
2022-10-19T02:08:04.679Z,4.87
2022-10-19T02:10:35.352Z,4.33
2022-10-19T02:13:04.533Z,4.47
2022-10-19T02:15:36.500Z,4.50
2022-10-19T02:18:07.064Z,4.60
2022-10-19T02:20:37.714Z,4.20
2022-10-19T02:23:06.048Z,4.97
2022-10-19T02:25:34.377Z,4.60
2022-10-19T02:28:03.744Z,4.13
2022-10-19T02:30:31.886Z,4.20
2022-10-19T02:32:59.747Z,4.97
2022-10-19T02:35:29.187Z,4.70
2022-10-19T02:38:01.033Z,4.20
2022-10-19T02:40:30.705Z,4.93
2022-10-19T02:43:05.111Z,4.20
2022-10-19T02:45:38.240Z,4.33
2022-10-19T02:48:10.904Z,4.80
2022-10-19T02:50:44.719Z,4.13
2022-10-19T02:53:12.566Z,5.03
2022-10-19T02:58:13.724Z,4.47
2022-10-19T03:00:41.649Z,5.37
2022-10-19T03:03:09.508Z,6.63
2022-10-19T03:05:37.373Z,6.20
2022-10-19T03:08:06.784Z,7.20
2022-10-19T03:10:34.616Z,7.00
2022-10-19T03:13:02.492Z,7.63
2022-10-19T03:15:30.375Z,7.97
2022-10-19T03:17:58.213Z,6.80
2022-10-19T03:20:26.073Z,7.37
2022-10-19T03:25:23.056Z,6.70
2022-10-19T03:27:50.909Z,6.87
2022-10-19T03:30:18.773Z,7.67
2022-10-19T03:32:46.803Z,8.77
2022-10-19T03:35:14.725Z,7.83
2022-10-19T03:37:42.566Z,8.00
2022-10-19T03:40:11.138Z,8.47
2022-10-19T03:42:40.352Z,8.60
2022-10-19T03:45:09.098Z,9.60
2022-10-19T03:47:37.089Z,10.03
2022-10-19T03:50:05.985Z,10.60
2022-10-19T03:52:33.833Z,10.27
2022-10-19T03:55:01.655Z,10.07
2022-10-19T03:57:29.513Z,10.30
2022-10-19T03:59:58.739Z,9.13
2022-10-19T04:02:26.584Z,8.70
2022-10-19T04:04:54.409Z,8.67
2022-10-19T04:07:22.282Z,9.27
2022-10-19T04:09:50.132Z,8.67
2022-10-19T04:12:17.946Z,9.93
2022-10-19T04:14:57.011Z,9.33
2022-10-19T04:17:27.065Z,10.03
2022-10-19T04:19:54.929Z,8.97
2022-10-19T04:22:22.798Z,9.10
2022-10-19T04:24:50.659Z,9.00
2022-10-19T04:27:18.480Z,8.97
2022-10-19T04:29:46.361Z,9.40
2022-10-19T04:32:14.253Z,9.93
2022-10-19T04:34:43.480Z,10.07
2022-10-19T04:37:14.368Z,9.07
2022-10-19T04:39:43.382Z,8.87
2022-10-19T04:42:11.289Z,10.03
2022-10-19T04:44:39.580Z,9.87
2022-10-19T04:47:07.487Z,9.70
2022-10-19T04:49:35.348Z,9.57
2022-10-19T04:52:04.781Z,9.60
2022-10-19T04:54:32.801Z,9.50
2022-10-19T04:57:00.644Z,8.20
2022-10-19T04:59:28.511Z,7.50
2022-10-19T05:01:56.337Z,7.50
2022-10-19T05:04:24.201Z,8.30
2022-10-19T05:06:52.008Z,8.63
2022-10-19T05:09:21.258Z,8.23
2022-10-19T05:11:51.185Z,8.00
2022-10-19T05:14:19.049Z,7.60
2022-10-19T05:16:46.955Z,8.53
2022-10-19T05:19:15.403Z,8.10
2022-10-19T05:21:43.212Z,8.90
2022-10-19T05:24:13.825Z,8.07
2022-10-19T05:26:43.101Z,7.87
2022-10-19T05:29:13.043Z,8.50
2022-10-19T05:31:41.276Z,9.10
2022-10-19T05:34:09.264Z,9.10
2022-10-19T05:36:38.854Z,11.07
2022-10-19T05:39:08.580Z,8.20
2022-10-19T05:41:36.663Z,9.60
2022-10-19T05:44:06.869Z,9.00
2022-10-19T05:46:35.385Z,8.80
2022-10-19T05:49:03.401Z,10.13
2022-10-19T05:51:31.240Z,8.30
2022-10-19T05:53:59.147Z,8.80
2022-10-19T05:56:28.140Z,8.50
2022-10-19T05:58:57.227Z,8.60
2022-10-19T06:01:27.193Z,8.70
2022-10-19T06:03:56.331Z,8.17
2022-10-19T06:06:24.404Z,8.80
2022-10-19T06:08:54.055Z,7.90
2022-10-19T06:11:24.043Z,9.03
2022-10-19T06:13:52.909Z,8.63
2022-10-19T06:16:21.523Z,8.50
2022-10-19T06:18:51.168Z,7.90
2022-10-19T06:21:21.003Z,7.17
2022-10-19T06:23:51.586Z,8.47
2022-10-19T06:26:19.593Z,8.73
2022-10-19T06:28:47.715Z,8.80
2022-10-19T06:31:16.413Z,8.93
2022-10-19T06:33:52.304Z,8.60
2022-10-19T06:36:23.231Z,8.40
2022-10-19T06:38:53.140Z,9.20
2022-10-19T06:41:21.322Z,8.00
2022-10-19T06:43:52.889Z,8.27
2022-10-19T06:46:23.216Z,9.13
2022-10-19T06:48:52.417Z,9.37
2022-10-19T06:51:21.794Z,8.13
2022-10-19T06:53:52.906Z,8.30
2022-10-19T06:56:25.414Z,9.33
2022-10-19T06:58:53.819Z,9.10
2022-10-19T07:01:22.187Z,7.50
2022-10-19T07:03:52.196Z,8.60
2022-10-19T07:06:21.624Z,7.20
2022-10-19T07:08:49.578Z,7.20
2022-10-19T07:11:19.637Z,7.47
2022-10-19T07:13:47.506Z,7.10
2022-10-19T07:16:20.591Z,7.90
2022-10-19T07:18:50.627Z,8.50
2022-10-19T07:21:19.688Z,8.23
2022-10-19T07:23:49.292Z,8.37
2022-10-19T07:26:19.604Z,8.23
2022-10-19T07:28:48.984Z,9.20
2022-10-19T07:31:20.160Z,8.67
2022-10-19T07:33:48.257Z,8.87
2022-10-19T07:36:16.129Z,9.33
2022-10-19T07:38:43.952Z,9.00
2022-10-19T07:41:14.906Z,8.77
2022-10-19T07:43:48.533Z,8.93
2022-10-19T07:46:18.580Z,8.80
2022-10-19T07:48:46.861Z,8.87
2022-10-19T07:51:16.305Z,9.43
2022-10-19T07:53:44.619Z,8.13
2022-10-19T07:56:15.739Z,8.93
2022-10-19T07:58:44.173Z,8.70
2022-10-19T08:01:15.449Z,8.10
2022-10-19T08:04:42.722Z,8.53
2022-10-19T08:06:31.686Z,10.00
2022-10-19T08:08:59.666Z,8.30
2022-10-19T08:11:31.306Z,8.80
2022-10-19T08:13:59.523Z,9.63
2022-10-19T08:16:29.873Z,10.17
2022-10-19T08:18:59.619Z,10.03
2022-10-19T08:21:28.838Z,9.70
2022-10-19T08:23:56.798Z,9.30
2022-10-19T08:26:24.775Z,8.57
2022-10-19T08:28:54.012Z,9.60
2022-10-19T08:31:23.215Z,8.40
2022-10-19T08:33:51.728Z,8.60
2022-10-19T08:36:21.287Z,8.60
2022-10-19T08:38:49.504Z,8.53
2022-10-19T08:41:24.127Z,8.63
2022-10-19T08:44:39.416Z,8.60
2022-10-19T08:47:17.432Z,8.80
2022-10-19T08:49:47.273Z,8.80
2022-10-19T08:52:18.751Z,8.50
2022-10-19T08:54:52.448Z,8.43
2022-10-19T08:57:34.581Z,8.53
2022-10-19T09:00:09.315Z,8.37
2022-10-19T09:02:51.805Z,7.73
2022-10-19T09:05:32.522Z,8.67
2022-10-19T09:08:00.832Z,7.30
2022-10-19T09:10:32.845Z,10.00
2022-10-19T09:13:03.023Z,8.20
2022-10-19T09:15:39.508Z,8.40
2022-10-19T09:18:11.529Z,7.27
2022-10-19T09:20:41.743Z,8.00
2022-10-19T09:23:27.096Z,8.43
2022-10-19T09:25:57.046Z,7.13
2022-10-19T09:28:39.937Z,8.20
2022-10-19T09:31:15.852Z,7.80
2022-10-19T09:33:47.572Z,8.13
2022-10-19T09:36:22.569Z,8.47
2022-10-19T09:38:51.419Z,7.90
2022-10-19T09:41:21.830Z,7.60
2022-10-19T09:43:53.889Z,8.77
2022-10-19T09:46:38.931Z,7.43
2022-10-19T09:49:07.129Z,7.70
2022-10-19T09:51:56.033Z,7.93
2022-10-19T09:54:33.303Z,7.37
2022-10-19T09:57:01.247Z,6.70
2022-10-19T09:59:32.254Z,7.70
2022-10-19T10:02:17.511Z,7.60
2022-10-19T10:04:55.692Z,8.13
2022-10-19T10:07:29.252Z,8.40
2022-10-19T10:09:57.124Z,8.03
2022-10-19T10:12:25.252Z,8.17
2022-10-19T10:14:56.052Z,9.50
2022-10-19T10:17:31.436Z,7.57
2022-10-19T10:20:19.495Z,9.10
2022-10-19T10:22:54.209Z,9.53
2022-10-19T10:25:22.136Z,8.97
2022-10-19T10:27:56.403Z,10.60
2022-10-19T10:30:24.437Z,9.67
2022-10-19T10:32:58.024Z,9.70
2022-10-19T10:35:33.761Z,9.97
2022-10-19T10:38:15.820Z,9.60
2022-10-19T10:40:51.894Z,10.40
2022-10-19T10:43:23.741Z,10.07
2022-10-19T10:45:54.684Z,9.60
2022-10-19T10:48:29.591Z,10.10
2022-10-19T10:50:58.616Z,10.63
2022-10-19T10:53:38.373Z,10.63
2022-10-19T10:56:20.346Z,10.73
2022-10-19T10:58:51.847Z,11.53
2022-10-19T11:01:23.509Z,10.20
2022-10-19T11:04:01.107Z,10.40
2022-10-19T11:06:28.977Z,9.60
2022-10-19T11:09:04.533Z,9.60
2022-10-19T11:11:37.565Z,10.40
2022-10-19T11:14:23.531Z,10.70
2022-10-19T11:16:54.048Z,10.90
2022-10-19T11:19:27.258Z,10.00
2022-10-19T11:22:01.235Z,10.30
2022-10-19T11:24:42.756Z,11.40
2022-10-19T11:27:25.708Z,10.53
2022-10-19T11:30:08.765Z,10.90
2022-10-19T11:32:46.190Z,11.60
2022-10-19T11:35:27.847Z,10.87
2022-10-19T11:38:19.717Z,10.43
2022-10-19T11:43:53.288Z,10.47
2022-10-19T11:46:26.498Z,11.33
2022-10-19T11:49:07.858Z,11.97
2022-10-19T11:51:41.622Z,12.13
2022-10-19T11:54:27.389Z,11.70
2022-10-19T11:57:07.321Z,10.90
2022-10-19T11:59:52.021Z,10.03
2022-10-19T12:02:45.477Z,12.13
2022-10-19T12:05:17.589Z,10.90
2022-10-19T12:07:57.626Z,10.50
2022-10-19T12:10:33.892Z,11.27
2022-10-19T12:13:05.548Z,11.13
2022-10-19T12:15:36.980Z,11.87
2022-10-19T12:18:11.685Z,13.03
2022-10-19T12:20:44.315Z,12.60
2022-10-19T12:23:24.226Z,10.23
2022-10-19T12:25:53.138Z,10.80
2022-10-19T12:28:27.797Z,13.07
2022-10-19T12:30:56.557Z,14.23
2022-10-19T12:33:30.766Z,12.70
2022-10-19T12:36:13.241Z,13.43
2022-10-19T12:38:59.747Z,12.40
2022-10-19T12:41:34.418Z,12.33
2022-10-19T12:44:44.451Z,14.63
2022-10-19T12:47:16.035Z,11.50
2022-10-19T12:49:51.646Z,12.97
2022-10-19T12:52:39.214Z,13.60
2022-10-19T12:55:27.075Z,12.57
2022-10-19T12:58:01.980Z,12.47
2022-10-19T13:00:32.753Z,14.10
2022-10-19T13:03:04.568Z,13.83
2022-10-19T13:05:34.014Z,14.87
2022-10-19T13:08:04.169Z,12.77
2022-10-19T13:10:34.849Z,13.40
2022-10-19T13:13:03.149Z,12.93
2022-10-19T13:15:53.278Z,12.70
2022-10-19T13:19:09.496Z,14.60
2022-10-19T13:21:49.941Z,14.77
2022-10-19T13:24:36.786Z,16.00
2022-10-19T13:27:39.310Z,15.57
2022-10-19T13:31:00.519Z,14.40
2022-10-19T13:33:50.864Z,14.63
2022-10-19T13:36:19.826Z,16.00
2022-10-19T13:39:03.664Z,15.93
2022-10-19T13:41:47.817Z,16.33
2022-10-19T13:44:22.733Z,15.40
2022-10-19T13:46:59.756Z,16.80
2022-10-19T13:49:37.611Z,15.33
2022-10-19T13:52:22.546Z,16.27
2022-10-19T13:55:14.984Z,16.40
2022-10-19T13:57:56.108Z,15.90
2022-10-19T14:00:31.541Z,14.40
2022-10-19T14:03:19.101Z,19.53
2022-10-19T14:06:00.413Z,14.77
2022-10-19T14:09:04.548Z,15.63
2022-10-19T14:11:34.933Z,15.50
2022-10-19T14:14:14.700Z,15.27
2022-10-19T14:16:54.460Z,14.90
2022-10-19T14:19:27.820Z,15.17
2022-10-19T14:21:57.411Z,14.87
2022-10-19T14:24:31.178Z,15.27
2022-10-19T14:27:01.499Z,14.40
2022-10-19T14:29:29.766Z,15.13
2022-10-19T14:32:00.659Z,15.13
2022-10-19T14:34:28.536Z,14.10
2022-10-19T14:36:56.551Z,15.47
2022-10-19T14:39:34.056Z,14.87
2022-10-19T14:42:06.268Z,14.93
2022-10-19T14:44:42.157Z,14.63
2022-10-19T14:47:27.059Z,15.00
2022-10-19T14:49:55.127Z,15.07
2022-10-19T14:52:29.299Z,14.57
2022-10-19T14:54:57.973Z,14.70
2022-10-19T14:57:29.435Z,13.63
2022-10-19T14:59:59.524Z,14.60
2022-10-19T15:02:32.150Z,14.70
2022-10-19T15:05:02.469Z,14.73
2022-10-19T15:07:38.037Z,17.50
2022-10-19T15:10:08.760Z,16.43
2022-10-19T15:12:39.054Z,17.20
2022-10-19T15:15:12.217Z,16.40
2022-10-19T15:17:51.512Z,17.40
2022-10-19T15:20:27.065Z,15.47
2022-10-19T15:22:55.363Z,14.37
2022-10-19T15:25:36.710Z,15.70
2022-10-19T15:28:21.181Z,16.27
2022-10-19T15:31:00.058Z,15.60
2022-10-19T15:33:29.757Z,14.40
2022-10-19T15:36:07.844Z,15.90
2022-10-19T15:38:36.132Z,18.80
2022-10-19T15:41:04.940Z,16.53
2022-10-19T15:43:45.361Z,18.40
2022-10-19T15:46:25.789Z,15.93
2022-10-19T15:48:56.473Z,16.13
2022-10-19T15:51:40.682Z,16.40
2022-10-19T15:54:08.633Z,16.70
2022-10-19T15:56:37.956Z,16.73
2022-10-19T15:59:10.854Z,17.23
2022-10-19T16:01:38.911Z,15.23
2022-10-19T16:04:08.180Z,17.33
2022-10-19T16:06:39.469Z,15.90
2022-10-19T16:09:08.987Z,15.77
2022-10-19T16:11:36.851Z,16.77
2022-10-19T16:14:04.759Z,16.03
2022-10-19T16:16:34.242Z,16.90
2022-10-19T16:19:02.451Z,15.10
2022-10-19T16:21:34.425Z,15.10
2022-10-19T16:24:02.480Z,16.80
2022-10-19T16:26:32.006Z,15.87
2022-10-19T16:29:00.716Z,14.90
2022-10-19T16:31:28.649Z,15.57
2022-10-19T16:33:56.441Z,15.10
2022-10-19T16:36:24.335Z,16.37
2022-10-19T16:38:53.609Z,14.10
2022-10-19T16:41:21.465Z,16.50
2022-10-19T16:43:54.315Z,16.03
2022-10-19T16:46:23.107Z,14.70
2022-10-19T16:48:50.954Z,14.93
2022-10-19T16:51:31.248Z,13.50
2022-10-19T16:54:00.451Z,12.77
2022-10-19T16:56:29.977Z,12.27
2022-10-19T16:59:00.488Z,11.70
2022-10-19T17:01:29.493Z,12.20
2022-10-19T17:03:58.510Z,12.53
2022-10-19T17:06:28.043Z,13.10
2022-10-19T17:11:46.879Z,12.10
2022-10-19T17:14:14.762Z,10.80
2022-10-19T17:16:42.665Z,10.90
2022-10-19T17:19:12.031Z,9.90
2022-10-19T17:21:42.233Z,9.77
2022-10-19T17:24:20.098Z,9.50
2022-10-19T17:26:51.329Z,11.27
2022-10-19T17:29:19.693Z,12.20
2022-10-19T17:31:49.107Z,9.70
2022-10-19T17:34:17.766Z,11.20
2022-10-19T17:36:47.219Z,13.13
2022-10-19T17:39:17.878Z,12.07
2022-10-19T17:41:46.500Z,12.13
2022-10-19T17:44:16.265Z,11.17
2022-10-19T17:46:44.370Z,11.17
2022-10-19T17:49:12.808Z,10.63
2022-10-19T17:51:41.272Z,10.73
2022-10-19T17:54:12.610Z,10.93
2022-10-19T17:56:41.127Z,12.07
2022-10-19T17:59:09.122Z,10.90
2022-10-19T18:01:38.632Z,11.40
2022-10-19T18:04:07.136Z,11.40
2022-10-19T18:06:36.592Z,10.07
2022-10-19T18:09:06.947Z,10.60
2022-10-19T18:11:38.408Z,10.03
2022-10-19T18:14:07.836Z,9.90
2022-10-19T18:16:39.692Z,10.03
2022-10-19T18:19:09.439Z,10.30
2022-10-19T18:21:39.477Z,10.63
2022-10-19T18:24:12.731Z,11.07
2022-10-19T18:26:43.449Z,10.87
2022-10-19T18:29:13.453Z,11.03
2022-10-19T18:31:42.782Z,11.10
2022-10-19T18:34:15.083Z,10.47
2022-10-19T18:36:43.055Z,10.63
2022-10-19T18:39:11.902Z,9.53
2022-10-19T18:41:40.512Z,9.30
2022-10-19T18:44:09.696Z,9.80
2022-10-19T18:46:38.141Z,9.67
2022-10-19T18:49:09.170Z,9.03
2022-10-19T18:51:37.709Z,8.50
2022-10-19T18:54:06.129Z,8.60
2022-10-19T18:56:36.361Z,10.80
2022-10-19T18:59:04.308Z,9.73
2022-10-19T19:01:32.367Z,10.60
2022-10-19T19:04:08.003Z,10.33
2022-10-19T19:06:36.408Z,10.53
2022-10-19T19:09:06.981Z,11.77
2022-10-19T19:11:37.443Z,11.83
2022-10-19T19:14:07.939Z,13.77
2022-10-19T19:16:37.872Z,12.60
2022-10-19T19:19:08.044Z,12.50
2022-10-19T19:21:36.910Z,13.43
2022-10-19T19:24:06.760Z,13.43
2022-10-19T19:26:37.852Z,13.40
2022-10-19T19:29:05.967Z,12.83
2022-10-19T19:31:33.914Z,12.87
2022-10-19T19:34:02.503Z,12.67
2022-10-19T19:36:31.763Z,11.30
2022-10-19T19:38:59.651Z,12.27
2022-10-19T19:41:28.814Z,12.03
2022-10-19T19:43:57.499Z,12.50
2022-10-19T19:46:25.337Z,12.57
2022-10-19T19:49:00.006Z,11.97
2022-10-19T19:51:28.424Z,11.60
2022-10-19T19:53:58.190Z,11.70
2022-10-19T19:56:26.873Z,11.87
2022-10-19T19:58:58.665Z,10.83
2022-10-19T20:01:27.321Z,11.37
2022-10-19T20:03:55.367Z,12.10
2022-10-19T20:06:25.824Z,11.10
2022-10-19T20:08:54.511Z,11.17
2022-10-19T20:11:24.906Z,10.10
2022-10-19T20:13:53.368Z,9.53
2022-10-19T20:16:26.544Z,10.00
2022-10-19T20:18:59.731Z,8.43
2022-10-19T20:21:27.692Z,8.60
2022-10-19T20:23:55.554Z,9.83
2022-10-19T20:26:26.121Z,9.60
2022-10-19T20:28:54.255Z,11.07
2022-10-19T20:31:22.551Z,10.50
2022-10-19T20:33:50.498Z,10.50
2022-10-19T20:36:20.892Z,10.53
2022-10-19T20:38:50.240Z,10.70
2022-10-19T20:41:19.260Z,10.47
2022-10-19T20:43:48.897Z,10.30
2022-10-19T20:46:19.170Z,10.00
2022-10-19T20:48:46.995Z,10.90
2022-10-19T20:51:16.732Z,11.77
2022-10-19T20:53:46.320Z,10.83
2022-10-19T20:56:15.912Z,10.23
2022-10-19T20:58:45.160Z,11.83
2022-10-19T21:01:16.237Z,10.80
2022-10-19T21:03:48.069Z,11.57
2022-10-19T21:06:16.660Z,11.60
2022-10-19T21:08:44.551Z,13.60
2022-10-19T21:11:14.424Z,13.73
2022-10-19T21:13:42.576Z,13.97
2022-10-19T21:16:11.689Z,11.50
2022-10-19T21:18:41.644Z,13.87
2022-10-19T21:21:14.648Z,11.50
2022-10-19T21:23:42.895Z,12.70
2022-10-19T21:26:10.940Z,12.13
2022-10-19T21:28:39.898Z,12.63
2022-10-19T21:31:10.071Z,12.67
2022-10-19T21:33:37.929Z,11.53
2022-10-19T21:36:08.703Z,11.57
2022-10-19T21:38:36.571Z,10.67
2022-10-19T21:41:06.386Z,11.50
2022-10-19T21:43:35.058Z,12.17
2022-10-19T21:46:03.342Z,12.00
2022-10-19T21:48:32.644Z,12.03
2022-10-19T21:51:00.487Z,11.30
2022-10-19T21:53:29.651Z,14.70
2022-10-19T21:56:00.607Z,12.80
2022-10-19T21:58:28.409Z,12.00
2022-10-19T22:00:56.212Z,11.20
2022-10-19T22:03:24.018Z,11.47
2022-10-19T22:05:52.228Z,10.83
2022-10-19T22:08:20.186Z,12.40
2022-10-19T22:10:49.375Z,12.67
2022-10-19T22:13:17.207Z,12.40
2022-10-19T22:15:45.354Z,12.90
2022-10-19T22:18:13.265Z,13.20
2022-10-19T22:20:41.956Z,12.37
2022-10-19T22:23:09.930Z,11.37
2022-10-19T22:25:38.331Z,12.90
2022-10-19T22:28:07.494Z,12.60
2022-10-19T22:30:35.310Z,11.80
2022-10-19T22:33:03.144Z,11.20
2022-10-19T22:35:30.974Z,10.90
2022-10-19T22:37:58.795Z,11.30
2022-10-19T22:40:26.684Z,12.00
2022-10-19T22:42:54.452Z,11.10
2022-10-19T22:45:23.597Z,10.90
2022-10-19T22:47:51.360Z,10.90
2022-10-19T22:50:19.171Z,11.57
2022-10-19T22:52:46.935Z,12.10
2022-10-19T22:55:14.773Z,11.40
2022-10-19T22:57:42.562Z,11.60
2022-10-19T23:00:11.690Z,10.97
2022-10-19T23:02:40.898Z,11.57
2022-10-19T23:05:09.415Z,13.33
2022-10-19T23:07:38.323Z,13.03
2022-10-19T23:10:07.173Z,13.40
2022-10-19T23:12:34.961Z,13.23
2022-10-19T23:15:02.797Z,13.20
2022-10-19T23:17:30.644Z,12.60
2022-10-19T23:19:59.776Z,12.20
2022-10-19T23:22:27.637Z,12.97
2022-10-19T23:24:55.420Z,10.70
2022-10-19T23:27:23.195Z,12.10
2022-10-19T23:29:51.000Z,11.30
2022-10-19T23:32:18.826Z,11.80
2022-10-19T23:34:48.424Z,10.73
2022-10-19T23:37:17.794Z,12.33
2022-10-19T23:39:45.577Z,10.77
2022-10-19T23:42:13.405Z,10.63
2022-10-19T23:44:41.276Z,11.50
2022-10-19T23:47:09.079Z,10.17
2022-10-19T23:49:36.920Z,11.00
2022-10-19T23:52:04.912Z,10.00
2022-10-19T23:54:34.125Z,10.13
2022-10-19T23:57:02.012Z,10.90
2022-10-19T23:59:29.824Z,10.30
